createdAt,value
2023-02-17T12:02:16.159Z,12.20
2023-02-17T12:03:57.244Z,15.60
2023-02-17T12:05:53.634Z,13.80
2023-02-17T12:07:47.166Z,11.00
2023-02-17T12:09:44.217Z,12.80
2023-02-17T12:11:25.293Z,11.40
2023-02-17T12:13:22.329Z,12.60
2023-02-17T12:15:15.892Z,9.00
2023-02-17T12:16:55.951Z,14.00
2023-02-17T12:18:55.039Z,11.60
2023-02-17T12:20:45.976Z,10.00
2023-02-17T12:22:19.970Z,14.40
2023-02-17T12:24:07.162Z,12.20
2023-02-17T12:26:00.033Z,12.40
2023-02-17T12:27:54.342Z,9.20
2023-02-17T12:29:42.930Z,11.60
2023-02-17T12:31:43.061Z,10.00
2023-02-17T12:33:34.543Z,13.20
2023-02-17T12:35:26.608Z,12.80
2023-02-17T12:36:58.986Z,12.00
2023-02-17T12:38:35.637Z,12.40
2023-02-17T12:40:16.700Z,11.20
2023-02-17T12:41:53.986Z,12.00
2023-02-17T12:43:42.732Z,10.00
2023-02-17T12:45:18.909Z,11.00
2023-02-17T12:46:53.058Z,11.20
2023-02-17T12:48:44.126Z,11.20
2023-02-17T12:50:24.063Z,10.00
2023-02-17T12:52:05.525Z,11.20
2023-02-17T12:53:51.190Z,9.00
2023-02-17T12:55:25.917Z,12.00
2023-02-17T12:57:00.473Z,12.00
2023-02-17T12:58:32.454Z,10.00
2023-02-17T13:00:21.253Z,9.40
2023-02-17T13:02:00.896Z,3.60
2023-02-17T13:03:33.301Z,14.40
2023-02-17T13:05:05.693Z,11.20
2023-02-17T13:06:38.975Z,11.40
2023-02-17T13:08:16.282Z,11.40
2023-02-17T13:09:48.640Z,10.00
2023-02-17T13:11:31.642Z,10.40
2023-02-17T13:13:11.408Z,11.60
2023-02-17T13:14:44.455Z,12.00
2023-02-17T13:16:16.400Z,9.80
2023-02-17T13:17:57.219Z,10.80
2023-02-17T13:19:30.223Z,10.00
2023-02-17T13:21:15.736Z,10.60
2023-02-17T13:22:48.417Z,9.60
2023-02-17T13:24:32.323Z,9.00
2023-02-17T13:26:13.549Z,10.00
2023-02-17T13:27:45.536Z,10.00
2023-02-17T13:29:25.105Z,11.40
2023-02-17T13:30:57.074Z,11.00
2023-02-17T13:32:34.138Z,11.20
2023-02-17T13:34:08.567Z,9.80
2023-02-17T13:35:41.006Z,11.00
2023-02-17T13:37:31.741Z,9.80
2023-02-17T13:39:26.708Z,9.80
2023-02-17T13:41:04.598Z,10.00
2023-02-17T13:42:41.925Z,10.00
2023-02-17T13:44:35.085Z,10.80
2023-02-17T13:46:07.315Z,9.00
2023-02-17T13:47:40.213Z,9.00
2023-02-17T13:49:20.052Z,7.20
2023-02-17T13:50:59.045Z,8.40
2023-02-17T13:52:31.405Z,10.20
2023-02-17T13:54:08.030Z,4.20
2023-02-17T13:55:42.016Z,11.00
2023-02-17T13:57:43.597Z,15.20
2023-02-17T13:59:19.472Z,18.40
2023-02-17T14:00:51.371Z,23.00
2023-02-17T14:02:35.533Z,26.40
2023-02-17T14:04:37.736Z,30.40
2023-02-17T14:06:14.135Z,30.80
2023-02-17T14:07:47.702Z,32.60
2023-02-17T14:09:31.039Z,34.00
2023-02-17T14:11:12.690Z,29.00
2023-02-17T14:12:44.852Z,34.50
2023-02-17T14:14:16.762Z,35.75
2023-02-17T14:15:52.570Z,39.25
2023-02-17T14:17:30.413Z,46.50
2023-02-17T14:19:10.046Z,45.75
2023-02-17T14:20:42.031Z,49.25
2023-02-17T14:22:31.359Z,51.50
2023-02-17T14:24:03.611Z,57.00
2023-02-17T14:25:37.427Z,59.75
2023-02-17T14:27:14.261Z,57.75
2023-02-17T14:28:53.495Z,56.25
2023-02-17T14:30:34.608Z,69.00
2023-02-17T14:32:07.009Z,71.40
2023-02-17T14:33:39.180Z,69.25
2023-02-17T14:35:14.293Z,78.75
2023-02-17T14:36:46.473Z,80.00
2023-02-17T14:38:29.381Z,62.40
2023-02-17T14:40:01.233Z,59.40
2023-02-17T14:41:33.232Z,66.25
2023-02-17T14:43:05.151Z,64.75
2023-02-17T14:44:37.191Z,66.75
2023-02-17T14:46:09.649Z,61.75
2023-02-17T14:47:42.941Z,60.00
2023-02-17T14:49:15.133Z,59.00
2023-02-17T14:50:47.083Z,60.25
2023-02-17T14:52:23.098Z,64.75
2023-02-17T14:53:55.193Z,59.25
2023-02-17T14:55:33.828Z,63.75
2023-02-17T14:57:06.935Z,67.80
2023-02-17T14:58:39.217Z,60.20
2023-02-17T15:00:13.361Z,59.00
2023-02-17T15:01:45.309Z,65.75
2023-02-17T15:03:17.255Z,64.00
2023-02-17T15:04:49.154Z,61.50
2023-02-17T15:06:26.491Z,60.50
2023-02-17T15:08:00.533Z,60.50
2023-02-17T15:09:32.551Z,58.75
2023-02-17T15:11:05.688Z,57.00
2023-02-17T15:12:37.777Z,49.50
2023-02-17T15:14:14.492Z,54.00
2023-02-17T15:15:47.985Z,58.25
2023-02-17T15:17:20.300Z,47.75
2023-02-17T15:18:52.459Z,54.75
2023-02-17T15:20:24.487Z,50.50
2023-02-17T15:21:57.434Z,52.75
2023-02-17T15:23:31.027Z,54.25
2023-02-17T15:25:03.139Z,53.50
2023-02-17T15:26:35.298Z,52.25
2023-02-17T15:28:07.695Z,53.75
2023-02-17T15:29:39.687Z,54.50
2023-02-17T15:31:13.001Z,49.00
2023-02-17T15:32:45.130Z,50.00
2023-02-17T15:34:21.492Z,43.00
2023-02-17T15:35:53.952Z,46.75
2023-02-17T15:37:26.052Z,41.50
2023-02-17T15:38:58.498Z,44.25
2023-02-17T15:40:30.628Z,41.75
2023-02-17T15:42:06.175Z,39.25
2023-02-17T15:43:38.406Z,36.00
2023-02-17T15:45:18.488Z,35.25
2023-02-17T15:46:51.397Z,33.50
2023-02-17T15:48:27.860Z,33.00
2023-02-17T15:50:00.051Z,31.20
2023-02-17T15:51:32.214Z,34.25
2023-02-17T15:53:04.284Z,34.75
2023-02-17T15:54:36.613Z,31.80
2023-02-17T15:56:22.857Z,30.20
2023-02-17T15:57:57.293Z,29.40
2023-02-17T15:59:29.120Z,27.20
2023-02-17T16:01:04.292Z,30.60
2023-02-17T16:02:36.374Z,29.60
2023-02-17T16:04:12.437Z,28.20
2023-02-17T16:05:44.347Z,28.20
2023-02-17T16:07:16.199Z,30.20
2023-02-17T16:08:48.252Z,28.80
2023-02-17T16:10:21.618Z,30.40
2023-02-17T16:11:54.069Z,27.40
2023-02-17T16:13:26.054Z,29.20
2023-02-17T16:14:58.069Z,28.20
2023-02-17T16:16:33.053Z,28.20
2023-02-17T16:18:05.221Z,27.40
2023-02-17T16:19:37.297Z,28.20
2023-02-17T16:21:10.910Z,28.20
2023-02-17T16:22:43.912Z,27.00
2023-02-17T16:24:15.888Z,28.20
2023-02-17T16:25:47.863Z,26.20
2023-02-17T16:27:19.749Z,26.80
2023-02-17T16:28:51.813Z,27.20
2023-02-17T16:30:32.283Z,25.80
2023-02-17T16:32:04.723Z,30.00
2023-02-17T16:33:36.709Z,28.20
2023-02-17T16:35:16.814Z,25.00
2023-02-17T16:36:49.696Z,23.80
2023-02-17T16:38:24.912Z,24.80
2023-02-17T16:39:57.069Z,26.00
2023-02-17T16:41:29.092Z,26.00
2023-02-17T16:43:01.227Z,24.80
2023-02-17T16:44:33.341Z,26.00
2023-02-17T16:46:06.100Z,25.20
2023-02-17T16:47:38.374Z,27.40
2023-02-17T16:49:26.064Z,24.20
2023-02-17T16:50:58.210Z,23.00
2023-02-17T16:52:30.258Z,24.80
2023-02-17T16:54:02.197Z,24.40
2023-02-17T16:55:35.095Z,27.00
2023-02-17T16:57:07.139Z,23.20
2023-02-17T16:58:39.128Z,22.20
2023-02-17T17:00:17.053Z,20.20
2023-02-17T17:01:49.580Z,17.60
2023-02-17T17:03:22.783Z,19.20
2023-02-17T17:04:54.979Z,20.60
2023-02-17T17:06:28.698Z,20.80
2023-02-17T17:08:00.898Z,20.40
2023-02-17T17:09:32.899Z,19.60
2023-02-17T17:11:04.903Z,17.60
2023-02-17T17:12:36.833Z,17.80
2023-02-17T17:14:08.819Z,20.00
2023-02-17T17:15:45.014Z,18.80
2023-02-17T17:17:17.337Z,17.60
2023-02-17T17:18:49.499Z,18.80
2023-02-17T17:20:24.232Z,19.20
2023-02-17T17:21:56.233Z,18.20
2023-02-17T17:23:28.534Z,17.60
2023-02-17T17:25:00.700Z,18.00
2023-02-17T17:26:34.855Z,18.40
2023-02-17T17:28:06.988Z,17.00
2023-02-17T17:29:39.091Z,16.80
2023-02-17T17:31:11.662Z,18.60
2023-02-17T17:32:43.560Z,17.00
2023-02-17T17:34:15.612Z,16.20
2023-02-17T17:35:47.527Z,14.20
2023-02-17T17:37:19.407Z,13.80
2023-02-17T17:38:52.367Z,13.40
2023-02-17T17:40:29.094Z,18.20
2023-02-17T17:42:00.940Z,16.20
2023-02-17T17:43:32.803Z,13.60
2023-02-17T17:45:04.840Z,12.40
2023-02-17T17:46:37.054Z,15.00
2023-02-17T17:48:13.385Z,14.60
2023-02-17T17:49:45.343Z,14.20
2023-02-17T17:51:18.853Z,15.00
2023-02-17T17:52:50.814Z,11.60
2023-02-17T17:54:22.756Z,13.20
2023-02-17T17:55:54.653Z,13.60
2023-02-17T17:57:26.488Z,12.80
2023-02-17T17:58:59.502Z,14.80
2023-02-17T18:00:31.661Z,13.40
2023-02-17T18:02:03.669Z,12.20
2023-02-17T18:03:35.767Z,15.40
2023-02-17T18:05:08.307Z,11.00
2023-02-17T18:06:48.022Z,11.40
2023-02-17T18:08:20.164Z,11.20
2023-02-17T18:09:52.163Z,12.60
2023-02-17T18:11:24.541Z,12.80
2023-02-17T18:12:56.494Z,11.80
2023-02-17T18:14:28.725Z,11.00
2023-02-17T18:16:01.296Z,13.20
2023-02-17T18:17:33.946Z,11.60
2023-02-17T18:19:06.675Z,12.20
2023-02-17T18:20:38.634Z,12.80
2023-02-17T18:22:10.829Z,11.20
2023-02-17T18:23:42.818Z,11.20
2023-02-17T18:25:14.977Z,12.00
2023-02-17T18:26:47.074Z,11.80
2023-02-17T18:28:19.019Z,11.00
2023-02-17T18:29:50.930Z,9.80
2023-02-17T18:31:22.939Z,13.00
2023-02-17T18:32:55.165Z,11.80
2023-02-17T18:34:27.226Z,12.20
2023-02-17T18:35:59.085Z,10.20
2023-02-17T18:37:30.937Z,10.60
2023-02-17T18:39:02.920Z,10.00
2023-02-17T18:40:40.370Z,11.60
2023-02-17T18:42:12.353Z,10.20
2023-02-17T18:43:44.419Z,9.00
2023-02-17T18:45:16.537Z,9.40
2023-02-17T18:46:48.644Z,10.00
2023-02-17T18:48:20.739Z,10.20
2023-02-17T18:49:52.642Z,8.00
2023-02-17T18:51:26.096Z,9.20
2023-02-17T18:52:58.289Z,10.00
2023-02-17T18:54:30.361Z,13.20
2023-02-17T18:56:02.299Z,14.00
2023-02-17T18:57:34.360Z,11.80
2023-02-17T18:59:06.630Z,13.40
2023-02-17T19:00:38.481Z,8.60
2023-02-17T19:02:11.475Z,12.00
2023-02-17T19:03:43.680Z,11.20
2023-02-17T19:05:17.759Z,11.20
2023-02-17T19:06:49.726Z,11.40
2023-02-17T19:08:21.816Z,8.40
2023-02-17T19:09:54.798Z,11.60
2023-02-17T19:11:26.983Z,13.00
2023-02-17T19:12:59.135Z,17.00
2023-02-17T19:14:34.454Z,17.00
2023-02-17T19:16:14.601Z,19.60
2023-02-17T19:17:47.773Z,24.20
2023-02-17T19:19:19.694Z,27.20
2023-02-17T19:20:53.956Z,28.80
2023-02-17T19:22:25.801Z,32.75
2023-02-17T19:23:57.810Z,34.75
2023-02-17T19:25:29.751Z,41.50
2023-02-17T19:27:01.600Z,48.00
2023-02-17T19:28:34.652Z,51.25
2023-02-17T19:30:08.458Z,54.00
2023-02-17T19:31:40.642Z,57.50
2023-02-17T19:33:12.899Z,57.75
2023-02-17T19:34:44.760Z,61.40
2023-02-17T19:36:18.791Z,62.25
2023-02-17T19:37:50.678Z,65.00
2023-02-17T19:39:22.591Z,73.80
2023-02-17T19:40:54.441Z,72.00
2023-02-17T19:42:26.386Z,72.75
2023-02-17T19:43:58.363Z,71.25
2023-02-17T19:45:30.274Z,77.75
2023-02-17T19:47:02.229Z,78.00
2023-02-17T19:48:34.693Z,77.00
2023-02-17T19:50:07.298Z,80.50
2023-02-17T19:51:39.215Z,75.25
2023-02-17T19:53:11.739Z,79.50
2023-02-17T19:54:43.643Z,75.75
2023-02-17T19:56:23.424Z,82.25
2023-02-17T19:57:55.362Z,80.25
2023-02-17T19:59:27.204Z,81.50
2023-02-17T20:01:13.645Z,78.00
2023-02-17T20:02:45.938Z,83.50
2023-02-17T20:04:17.848Z,87.75
2023-02-17T20:05:49.773Z,85.00
2023-02-17T20:07:21.930Z,85.00
2023-02-17T20:09:11.223Z,86.00
2023-02-17T20:10:43.297Z,86.50
2023-02-17T20:12:15.445Z,90.00
2023-02-17T20:13:47.340Z,91.00
2023-02-17T20:15:19.265Z,82.50
2023-02-17T20:16:53.421Z,91.50
2023-02-17T20:18:25.656Z,90.00
2023-02-17T20:19:57.737Z,89.50
2023-02-17T20:21:30.517Z,88.50
2023-02-17T20:23:04.112Z,87.50
2023-02-17T20:24:36.931Z,87.25
2023-02-17T20:26:11.107Z,80.25
2023-02-17T20:27:42.924Z,80.25
2023-02-17T20:29:15.167Z,80.00
2023-02-17T20:30:47.026Z,85.00
2023-02-17T20:32:18.989Z,97.75
2023-02-17T20:33:51.063Z,96.25
2023-02-17T20:35:23.016Z,91.75
2023-02-17T20:36:55.381Z,88.25
2023-02-17T20:38:27.317Z,82.00
2023-02-17T20:39:59.158Z,73.50
2023-02-17T20:41:31.074Z,78.75
2023-02-17T20:43:02.952Z,73.50
2023-02-17T20:44:35.399Z,78.50
2023-02-17T20:46:07.779Z,73.75
2023-02-17T20:47:40.098Z,72.75
2023-02-17T20:49:12.655Z,70.00
2023-02-17T20:50:44.693Z,64.80
2023-02-17T20:52:16.556Z,71.60
2023-02-17T20:53:48.578Z,70.20
2023-02-17T20:55:20.401Z,74.25
2023-02-17T20:56:52.427Z,72.25
2023-02-17T20:58:24.369Z,71.80
2023-02-17T20:59:56.239Z,73.00
2023-02-17T21:01:28.133Z,70.75
2023-02-17T21:03:00.023Z,77.00
2023-02-17T21:04:31.849Z,68.75
2023-02-17T21:06:04.486Z,67.75
2023-02-17T21:07:36.800Z,66.60
2023-02-17T21:09:18.201Z,72.75
2023-02-17T21:10:50.211Z,69.00
2023-02-17T21:12:22.082Z,73.75
2023-02-17T21:13:53.981Z,73.50
2023-02-17T21:15:26.053Z,72.80
2023-02-17T21:16:58.011Z,72.75
2023-02-17T21:18:29.840Z,78.50
2023-02-17T21:20:01.796Z,70.00
2023-02-17T21:21:33.842Z,74.50
2023-02-17T21:23:05.993Z,77.75
2023-02-17T21:24:37.777Z,81.25
2023-02-17T21:26:10.528Z,79.75
2023-02-17T21:27:42.409Z,81.50
2023-02-17T21:29:14.257Z,79.75
2023-02-17T21:30:47.296Z,76.25
2023-02-17T21:32:19.810Z,81.50
2023-02-17T21:33:51.694Z,82.25
2023-02-17T21:35:23.605Z,81.25
2023-02-17T21:36:55.396Z,79.50
2023-02-17T21:38:27.254Z,77.50
2023-02-17T21:39:59.315Z,80.00
2023-02-17T21:41:32.663Z,84.25
2023-02-17T21:43:23.042Z,78.75
2023-02-17T21:44:55.252Z,82.50
2023-02-17T21:46:27.436Z,77.50
2023-02-17T21:47:59.338Z,78.50
2023-02-17T21:49:31.225Z,85.25
2023-02-17T21:51:05.053Z,84.25
2023-02-17T21:52:36.966Z,82.00
2023-02-17T21:54:09.679Z,84.25
2023-02-17T21:55:41.599Z,80.00
2023-02-17T21:57:13.519Z,82.75
2023-02-17T21:58:47.095Z,81.00
2023-02-17T22:00:19.296Z,83.25
2023-02-17T22:01:52.088Z,82.25
2023-02-17T22:03:24.012Z,89.75
2023-02-17T22:04:56.695Z,86.25
2023-02-17T22:06:35.307Z,80.25
2023-02-17T22:08:07.112Z,83.50
2023-02-17T22:09:39.040Z,86.25
2023-02-17T22:11:18.285Z,85.75
2023-02-17T22:12:52.575Z,80.25
2023-02-17T22:14:24.719Z,82.00
2023-02-17T22:15:58.434Z,89.50
2023-02-17T22:17:30.310Z,84.25
2023-02-17T22:19:02.570Z,79.50
2023-02-17T22:20:35.815Z,84.50
2023-02-17T22:22:07.672Z,82.50
2023-02-17T22:23:39.759Z,82.00
2023-02-17T22:25:11.787Z,88.00
2023-02-17T22:26:43.601Z,86.00
2023-02-17T22:28:15.512Z,86.25
2023-02-17T22:29:47.459Z,87.75
2023-02-17T22:31:24.256Z,86.00
2023-02-17T22:32:57.088Z,71.00
2023-02-17T22:34:29.030Z,85.00
2023-02-17T22:36:09.326Z,87.00
2023-02-17T22:37:41.468Z,88.75
2023-02-17T22:39:13.364Z,84.25
2023-02-17T22:40:45.152Z,81.75
2023-02-17T22:42:17.030Z,81.75
2023-02-17T22:43:49.135Z,81.50
2023-02-17T22:45:20.947Z,79.00
2023-02-17T22:46:52.834Z,71.75
2023-02-17T22:48:24.907Z,71.75
2023-02-17T22:49:56.763Z,69.50
2023-02-17T22:51:34.852Z,76.00
2023-02-17T22:53:06.716Z,75.50
2023-02-17T22:54:39.128Z,76.00
2023-02-17T22:56:11.130Z,70.50
2023-02-17T22:57:43.013Z,70.20
2023-02-17T22:59:14.924Z,65.20
2023-02-17T23:00:47.072Z,70.40
2023-02-17T23:02:18.926Z,66.80
2023-02-17T23:03:53.017Z,61.20
2023-02-17T23:05:25.948Z,64.20
2023-02-17T23:06:58.804Z,63.40
2023-02-17T23:08:30.772Z,64.40
2023-02-17T23:10:02.833Z,64.20
2023-02-17T23:11:54.353Z,59.75
2023-02-17T23:13:26.413Z,64.50
2023-02-17T23:14:58.358Z,68.40
2023-02-17T23:16:30.242Z,61.80
2023-02-17T23:18:02.256Z,68.00
2023-02-17T23:19:34.037Z,68.20
2023-02-17T23:21:12.832Z,68.00
2023-02-17T23:22:44.681Z,57.00
2023-02-17T23:24:16.897Z,76.00
2023-02-17T23:25:50.214Z,84.25
2023-02-17T23:27:22.105Z,68.75
2023-02-17T23:28:53.890Z,75.75
2023-02-17T23:30:26.013Z,66.20
2023-02-17T23:31:58.410Z,59.20
2023-02-17T23:33:30.610Z,60.75
